Time;durP1;ratioP1;P1;durP2;ratioP2;P2;SDS_P1;SDS_P2;PMS_P1;PMS_P2;Temp;Humidity;BMP_temperature;BMP_pressure;BME280_temperature;BME280_humidity;BME280_pressure;Samples;Min_cycle;Max_cycle;Signal;HPM_P1;HPM_P2
2023/03/25 00:01:24;;;;;;;5.43;2.08;;;9.00;99.90;;;;;;5059962;28;20104;-46
2023/03/25 00:03:51;;;;;;;5.57;1.95;;;9.00;99.90;;;;;;5047385;28;20045;-46
2023/03/25 00:06:18;;;;;;;8.48;2.60;;;9.00;99.90;;;;;;5046649;28;20139;-49
2023/03/25 00:08:44;;;;;;;5.30;1.95;;;9.00;99.90;;;;;;5048094;28;20060;-46
2023/03/25 00:11:09;;;;;;;5.10;1.92;;;9.00;99.90;;;;;;5048122;28;20021;-45
2023/03/25 00:13:35;;;;;;;5.05;2.15;;;9.10;99.90;;;;;;5056364;28;20021;-47
2023/03/25 00:16:02;;;;;;;9.98;2.42;;;9.10;99.90;;;;;;5056342;28;20021;-45
2023/03/25 00:18:32;;;;;;;4.20;2.08;;;9.20;99.90;;;;;;5047522;28;20039;-48
2023/03/25 00:21:02;;;;;;;3.87;1.73;;;9.30;99.90;;;;;;5056298;28;20027;-45
2023/03/25 00:23:29;;;;;;;7.13;2.05;;;9.30;99.90;;;;;;5052035;28;20103;-45
2023/03/25 00:25:59;;;;;;;7.53;2.13;;;9.30;99.90;;;;;;5051586;28;20108;-46
2023/03/25 00:28:32;;;;;;;6.65;2.20;;;9.30;99.90;;;;;;5050898;28;20052;-47
2023/03/25 00:31:00;;;;;;;4.55;2.08;;;9.30;99.90;;;;;;5051471;28;20074;-45
2023/03/25 00:33:26;;;;;;;6.30;2.17;;;9.40;99.90;;;;;;5051076;28;20045;-47
2023/03/25 00:35:53;;;;;;;4.03;1.80;;;9.30;99.90;;;;;;5051233;28;20048;-46
2023/03/25 00:38:19;;;;;;;6.55;2.00;;;9.30;99.90;;;;;;5059882;28;20417;-47
2023/03/25 00:40:45;;;;;;;6.18;1.90;;;9.30;99.90;;;;;;5051602;28;20025;-46
2023/03/25 00:43:13;;;;;;;3.47;1.60;;;9.30;99.90;;;;;;5051890;28;20021;-45
2023/03/25 00:45:38;;;;;;;5.40;1.92;;;9.20;99.90;;;;;;5059834;28;20025;-47
2023/03/25 00:48:04;;;;;;;5.25;1.60;;;9.20;99.90;;;;;;5050383;28;20457;-47
2023/03/25 00:50:30;;;;;;;1.75;1.30;;;9.30;99.90;;;;;;5059839;28;20025;-45
2023/03/25 00:52:55;;;;;;;9.43;1.80;;;9.30;99.90;;;;;;5058030;28;20051;-46
2023/03/25 00:55:21;;;;;;;2.45;1.27;;;9.30;99.90;;;;;;5050323;28;20047;-49
2023/03/25 00:57:47;;;;;;;7.68;1.30;;;9.30;99.90;;;;;;5049926;28;20474;-46
2023/03/25 01:00:15;;;;;;;4.07;1.25;;;9.30;99.90;;;;;;5059445;28;20020;-47
2023/03/25 01:02:41;;;;;;;4.07;1.42;;;9.40;99.90;;;;;;5059391;28;20013;-45
2023/03/25 01:05:09;;;;;;;2.65;1.30;;;9.30;99.90;;;;;;5059547;28;20051;-45
2023/03/25 01:07:35;;;;;;;6.45;1.27;;;9.30;99.90;;;;;;5059254;28;20031;-45
2023/03/25 01:10:01;;;;;;;2.33;1.38;;;9.30;99.90;;;;;;5060009;28;20036;-46
2023/03/25 01:12:27;;;;;;;2.75;1.85;;;9.30;99.90;;;;;;5057589;28;20029;-46
2023/03/25 01:14:53;;;;;;;5.68;1.70;;;9.30;99.90;;;;;;5050827;28;20056;-45
2023/03/25 01:17:19;;;;;;;4.28;2.08;;;9.40;99.90;;;;;;5052168;28;20484;-46
2023/03/25 01:19:44;;;;;;;4.07;1.70;;;9.30;99.90;;;;;;5056225;28;20099;-47
2023/03/25 01:22:10;;;;;;;5.63;1.50;;;9.40;99.90;;;;;;5050800;28;20463;-47
2023/03/25 01:24:36;;;;;;;6.22;1.73;;;9.40;99.90;;;;;;5052932;28;20070;-46
2023/03/25 01:27:02;;;;;;;5.28;1.38;;;9.30;99.90;;;;;;5050034;28;20109;-46
2023/03/25 01:29:28;;;;;;;4.32;1.55;;;9.30;99.90;;;;;;5058996;28;20481;-46
2023/03/25 01:31:53;;;;;;;5.10;1.60;;;9.30;99.90;;;;;;5049821;28;20096;-47
2023/03/25 01:34:19;;;;;;;6.38;1.73;;;9.30;99.90;;;;;;5050355;28;20525;-45
2023/03/25 01:36:45;;;;;;;6.05;2.53;;;9.30;99.90;;;;;;5056446;28;20029;-45
2023/03/25 01:39:15;;;;;;;5.80;1.40;;;9.30;99.90;;;;;;5051185;28;20509;-46
2023/03/25 01:41:41;;;;;;;5.32;1.30;;;9.30;99.90;;;;;;5050420;28;20021;-46
2023/03/25 01:44:28;;;;;;;5.95;1.80;;;9.20;99.90;;;;;;5049714;28;20033;-45
2023/03/25 01:46:55;;;;;;;5.13;1.70;;;9.30;99.90;;;;;;5049567;28;20033;-46
2023/03/25 01:49:32;;;;;;;5.20;1.80;;;9.30;99.90;;;;;;5057431;28;20481;-46
2023/03/25 01:52:04;;;;;;;5.47;1.60;;;9.30;99.90;;;;;;5050104;28;20086;-45
2023/03/25 01:54:29;;;;;;;5.25;1.70;;;9.20;99.90;;;;;;5062711;28;20021;-46
2023/03/25 01:56:55;;;;;;;5.45;1.75;;;9.20;99.90;;;;;;5057486;28;20023;-47
2023/03/25 01:59:25;;;;;;;6.28;1.52;;;9.20;99.90;;;;;;5049569;28;20025;-46
2023/03/25 02:01:52;;;;;;;2.28;1.27;;;9.20;99.90;;;;;;5050124;28;20434;-45
2023/03/25 02:04:33;;;;;;;6.65;1.50;;;9.20;99.90;;;;;;5051728;28;20029;-46
2023/03/25 02:06:59;;;;;;;2.65;1.52;;;9.20;99.90;;;;;;5049868;28;20032;-45
2023/03/25 02:09:25;;;;;;;2.83;1.40;;;9.20;99.90;;;;;;5057826;28;20029;-45
2023/03/25 02:11:53;;;;;;;4.18;1.20;;;9.20;99.90;;;;;;5058111;28;20536;-46
2023/03/25 02:14:23;;;;;;;4.07;1.30;;;9.30;99.90;;;;;;5052757;28;20120;-46
2023/03/25 02:17:04;;;;;;;4.05;1.42;;;9.30;99.90;;;;;;5055000;28;20017;-46
2023/03/25 02:19:39;;;;;;;8.02;1.58;;;9.40;99.90;;;;;;5049939;28;20078;-45
2023/03/25 02:22:36;;;;;;;3.75;2.13;;;9.30;99.90;;;;;;5057759;28;20534;-45
2023/03/25 02:25:39;;;;;;;4.63;1.25;;;9.40;99.90;;;;;;5050016;28;20096;-45
2023/03/25 02:28:34;;;;;;;4.45;1.45;;;9.40;99.90;;;;;;5053032;28;20021;-45
2023/03/25 02:31:27;;;;;;;5.38;1.40;;;9.40;99.90;;;;;;5052978;28;20048;-45
2023/03/25 02:33:55;;;;;;;2.40;1.35;;;9.40;99.90;;;;;;5057544;28;20024;-45
2023/03/25 02:36:29;;;;;;;3.00;1.35;;;9.40;99.90;;;;;;5048903;28;20021;-45
2023/03/25 02:39:08;;;;;;;1.67;1.08;;;9.50;99.90;;;;;;5049570;28;20044;-45
2023/03/25 02:42:03;;;;;;;3.75;1.58;;;9.50;99.90;;;;;;5048012;28;20020;-48
2023/03/25 02:44:35;;;;;;;3.97;1.50;;;9.50;99.90;;;;;;5048957;28;20021;-48
2023/03/25 02:47:05;;;;;;;2.20;1.58;;;9.50;99.90;;;;;;5057429;28;20124;-47
2023/03/25 02:49:44;;;;;;;5.22;1.45;;;9.50;99.90;;;;;;5049266;28;20155;-49
2023/03/25 02:52:19;;;;;;;7.25;1.40;;;9.60;99.90;;;;;;5057578;28;20032;-46
2023/03/25 02:54:48;;;;;;;7.22;1.58;;;9.60;99.90;;;;;;5057675;28;20024;-45
2023/03/25 02:57:17;;;;;;;5.88;1.35;;;9.60;99.90;;;;;;5056973;28;20029;-46
2023/03/25 02:59:46;;;;;;;4.07;1.70;;;9.60;99.90;;;;;;5048557;28;20017;-46
2023/03/25 03:02:13;;;;;;;4.18;1.75;;;9.60;99.90;;;;;;5050877;28;20045;-46
2023/03/25 03:04:54;;;;;;;3.47;1.33;;;9.60;99.90;;;;;;5059226;28;20059;-46
2023/03/25 03:07:28;;;;;;;3.35;1.42;;;9.60;99.90;;;;;;5048897;28;20029;-46
2023/03/25 03:10:25;;;;;;;4.25;1.50;;;9.60;99.90;;;;;;5048866;28;20017;-46
2023/03/25 03:12:53;;;;;;;5.57;1.60;;;9.60;99.90;;;;;;5048454;28;20057;-46
2023/03/25 03:15:26;;;;;;;4.30;1.65;;;9.60;99.90;;;;;;5048197;28;20025;-46
2023/03/25 03:18:08;;;;;;;2.95;1.55;;;9.60;99.90;;;;;;5048453;28;20036;-45
2023/03/25 03:20:43;;;;;;;5.97;1.63;;;9.50;99.90;;;;;;5050119;28;20451;-45
2023/03/25 03:23:32;;;;;;;3.42;1.30;;;9.60;99.90;;;;;;5056782;28;20283;-47
2023/03/25 03:26:19;;;;;;;3.80;1.70;;;9.60;99.90;;;;;;5056602;28;20509;-46
2023/03/25 03:28:56;;;;;;;2.85;1.17;;;9.60;99.90;;;;;;5056560;28;20051;-47
2023/03/25 03:31:50;;;;;;;1.75;1.20;;;9.60;99.90;;;;;;5048360;28;20482;-45
2023/03/25 03:34:31;;;;;;;5.97;1.25;;;9.60;99.90;;;;;;5048370;28;20124;-47
2023/03/25 03:36:57;;;;;;;;;;;9.60;99.90;;;;;;5048836;28;20025;-46
2023/03/25 03:39:35;;;;;;;2.00;1.10;;;9.70;99.90;;;;;;5048659;28;19999;-47
2023/03/25 03:42:29;;;;;;;2.53;1.05;;;9.60;99.90;;;;;;5049115;28;20036;-47
2023/03/25 03:45:02;;;;;;;1.92;1.25;;;9.60;99.90;;;;;;5068683;28;20344;-46
2023/03/25 03:47:33;;;;;;;3.15;0.90;;;9.50;99.90;;;;;;5041044;28;20438;-46
2023/03/25 03:50:08;;;;;;;2.67;1.17;;;9.50;99.90;;;;;;5055566;28;20111;-49
2023/03/25 03:52:58;;;;;;;4.47;2.13;;;9.60;99.90;;;;;;5048101;28;20374;-45
2023/03/25 03:55:28;;;;;;;6.20;1.48;;;9.60;99.90;;;;;;5048396;28;20481;-45
2023/03/25 03:58:01;;;;;;;2.42;1.13;;;9.60;99.90;;;;;;5047720;28;20479;-46
2023/03/25 04:00:35;;;;;;;2.88;1.60;;;9.60;99.90;;;;;;5040434;28;20112;-47
2023/03/25 04:03:27;;;;;;;3.47;1.63;;;9.60;99.90;;;;;;5049502;28;20104;-47
2023/03/25 04:06:00;;;;;;;3.53;1.52;;;9.60;99.90;;;;;;5055974;28;20181;-45
2023/03/25 04:08:57;;;;;;;3.40;1.52;;;9.50;99.90;;;;;;5060704;28;20198;-45
2023/03/25 04:11:36;;;;;;;5.00;1.60;;;9.50;99.90;;;;;;5052082;28;20021;-45
2023/03/25 04:14:03;;;;;;;3.78;1.60;;;9.50;99.90;;;;;;5060115;28;20525;-45
2023/03/25 04:16:31;;;;;;;2.58;1.40;;;9.60;99.90;;;;;;5058423;28;20324;-46
2023/03/25 04:18:57;;;;;;;3.70;2.00;;;9.50;99.90;;;;;;5059843;28;20448;-45
2023/03/25 04:21:24;;;;;;;8.38;2.10;;;9.50;99.90;;;;;;5051692;28;20017;-46
2023/03/25 04:23:50;;;;;;;4.85;1.80;;;9.40;99.90;;;;;;5058904;28;20104;-46
2023/03/25 04:26:16;;;;;;;3.47;1.90;;;9.40;99.90;;;;;;5051705;28;20134;-46
2023/03/25 04:28:43;;;;;;;5.93;1.90;;;9.40;99.90;;;;;;5051608;28;20028;-45
2023/03/25 04:31:14;;;;;;;3.28;1.50;;;9.40;99.90;;;;;;5053377;28;20048;-45
2023/03/25 04:33:45;;;;;;;2.90;1.63;;;9.40;99.90;;;;;;5059038;28;20020;-45
2023/03/25 04:36:12;;;;;;;4.40;1.77;;;9.30;99.90;;;;;;5046020;28;20017;-46
2023/03/25 04:38:39;;;;;;;3.45;1.65;;;9.30;99.90;;;;;;5047906;28;20013;-45
2023/03/25 04:41:05;;;;;;;4.03;2.15;;;9.30;99.90;;;;;;5044180;28;20045;-45
2023/03/25 04:43:31;;;;;;;4.43;1.80;;;9.20;99.90;;;;;;5046686;28;20020;-45
2023/03/25 04:45:58;;;;;;;3.20;1.70;;;9.30;99.90;;;;;;5045724;28;20017;-46
2023/03/25 04:48:30;;;;;;;4.45;1.80;;;9.20;99.90;;;;;;5046607;28;20036;-46
2023/03/25 04:50:57;;;;;;;3.15;1.48;;;9.20;99.90;;;;;;5044900;28;20018;-45
2023/03/25 04:53:24;;;;;;;7.10;2.20;;;9.20;99.90;;;;;;5053984;28;20070;-45
2023/03/25 04:55:50;;;;;;;4.32;1.60;;;9.20;99.90;;;;;;5046375;28;20287;-46
2023/03/25 04:58:16;;;;;;;5.72;1.60;;;9.20;99.90;;;;;;5048173;28;20051;-45
2023/03/25 05:00:44;;;;;;;3.92;1.77;;;9.20;99.90;;;;;;5043380;28;20060;-45
2023/03/25 05:03:10;;;;;;;8.48;2.00;;;9.10;99.90;;;;;;5059832;28;20538;-45
2023/03/25 05:05:37;;;;;;;5.78;2.45;;;9.20;99.90;;;;;;5061448;28;20078;-45
2023/03/25 05:08:02;;;;;;;7.45;1.48;;;9.10;99.90;;;;;;5050297;28;20087;-46
2023/03/25 05:10:29;;;;;;;3.83;1.80;;;9.10;99.90;;;;;;5050779;28;20522;-49
2023/03/25 05:13:03;;;;;;;7.30;2.00;;;9.20;99.90;;;;;;5043331;28;20076;-46
2023/03/25 05:15:31;;;;;;;6.07;2.10;;;9.10;99.90;;;;;;5043394;28;20505;-46
2023/03/25 05:17:57;;;;;;;4.32;1.42;;;9.10;99.90;;;;;;5053962;28;20429;-45
2023/03/25 05:20:23;;;;;;;5.80;1.77;;;9.10;99.90;;;;;;5050765;28;20025;-48
2023/03/25 05:22:52;;;;;;;4.25;1.95;;;9.10;99.90;;;;;;5050938;28;20490;-46
2023/03/25 05:25:20;;;;;;;5.30;1.83;;;9.10;99.90;;;;;;5067270;28;20485;-46
2023/03/25 05:27:46;;;;;;;7.07;1.65;;;9.20;99.90;;;;;;5050644;28;20043;-47
2023/03/25 05:30:12;;;;;;;5.90;1.58;;;9.20;99.90;;;;;;5050676;28;20025;-47
2023/03/25 05:32:39;;;;;;;8.40;2.30;;;9.20;99.90;;;;;;5056113;28;20032;-49
2023/03/25 05:35:06;;;;;;;5.25;1.92;;;9.20;99.90;;;;;;5061020;28;20033;-46
2023/03/25 05:37:31;;;;;;;3.67;1.65;;;9.20;99.90;;;;;;5051002;28;20183;-46
2023/03/25 05:39:57;;;;;;;4.90;1.83;;;9.10;99.90;;;;;;5058910;28;20028;-47
2023/03/25 05:42:23;;;;;;;5.20;1.98;;;9.10;99.90;;;;;;5050228;28;20025;-46
2023/03/25 05:44:52;;;;;;;3.58;1.98;;;9.10;99.90;;;;;;5050224;28;20025;-46
2023/03/25 05:47:23;;;;;;;6.57;1.80;;;9.10;99.90;;;;;;5050107;28;20410;-45
2023/03/25 05:49:49;;;;;;;;;;;9.10;99.90;;;;;;5049421;28;20395;-46
2023/03/25 05:52:16;;;;;;;7.05;2.40;;;9.20;99.90;;;;;;5058464;28;19995;-46
2023/03/25 05:54:44;;;;;;;6.93;2.20;;;9.20;99.90;;;;;;5046753;28;20025;-46
2023/03/25 05:57:10;;;;;;;5.78;1.90;;;9.20;99.90;;;;;;5049547;28;20025;-45
2023/03/25 05:59:39;;;;;;;5.72;2.25;;;9.20;99.90;;;;;;5058501;28;20025;-45
2023/03/25 06:02:07;;;;;;;4.55;2.13;;;9.10;99.90;;;;;;5058282;28;20013;-46
2023/03/25 06:04:40;;;;;;;4.85;1.85;;;9.20;99.90;;;;;;5049990;28;20108;-45
2023/03/25 06:07:12;;;;;;;8.02;1.80;;;9.10;99.90;;;;;;5059071;28;20021;-46
2023/03/25 06:09:47;;;;;;;5.78;2.08;;;9.10;99.90;;;;;;5056235;28;20425;-45
2023/03/25 06:12:15;;;;;;;3.28;1.75;;;9.10;99.90;;;;;;5058136;28;20035;-45
2023/03/25 06:14:44;;;;;;;4.07;1.85;;;9.10;99.90;;;;;;5054478;28;20028;-43
2023/03/25 06:17:14;;;;;;;3.05;1.67;;;9.00;99.90;;;;;;5051866;28;20394;-45
2023/03/25 06:19:39;;;;;;;3.63;1.55;;;9.00;99.90;;;;;;5049806;28;20359;-45
2023/03/25 06:22:08;;;;;;;5.00;1.52;;;8.90;99.90;;;;;;5044555;28;20029;-46
2023/03/25 06:24:35;;;;;;;4.93;1.70;;;8.90;99.90;;;;;;5049249;28;20021;-45
2023/03/25 06:27:00;;;;;;;3.75;1.42;;;8.90;99.90;;;;;;5045620;28;20398;-45
2023/03/25 06:29:27;;;;;;;2.35;1.50;;;8.90;99.90;;;;;;5046419;28;20113;-46
2023/03/25 06:31:52;;;;;;;4.97;1.40;;;9.00;99.90;;;;;;5047670;28;20413;-46
2023/03/25 06:34:18;;;;;;;6.05;1.70;;;9.00;99.90;;;;;;5050432;28;20032;-46
2023/03/25 06:36:48;;;;;;;1.75;1.23;;;9.00;99.90;;;;;;5041801;28;20055;-46
2023/03/25 06:39:15;;;;;;;3.70;1.60;;;9.00;99.90;;;;;;5044317;28;20060;-48
2023/03/25 06:41:40;;;;;;;2.63;1.50;;;9.00;99.90;;;;;;5042819;28;20017;-47
2023/03/25 06:44:06;;;;;;;2.33;1.48;;;9.00;99.90;;;;;;5050219;28;20036;-45
2023/03/25 06:46:32;;;;;;;2.60;1.63;;;9.00;99.90;;;;;;5056882;28;20467;-46
2023/03/25 06:48:57;;;;;;;1.52;1.10;;;9.00;99.90;;;;;;5057525;28;20166;-46
2023/03/25 06:51:23;;;;;;;4.32;1.90;;;9.00;99.90;;;;;;5057481;28;20537;-45
2023/03/25 06:53:48;;;;;;;4.85;1.73;;;9.00;99.90;;;;;;5057185;28;20217;-46
2023/03/25 06:56:14;;;;;;;2.55;1.55;;;8.90;99.90;;;;;;5048277;28;20410;-45
2023/03/25 06:58:40;;;;;;;2.65;1.70;;;8.90;99.90;;;;;;5049778;28;20366;-45
2023/03/25 07:01:06;;;;;;;4.32;2.13;;;8.80;99.90;;;;;;5048665;28;20020;-45
2023/03/25 07:03:33;;;;;;;4.88;1.75;;;8.90;99.90;;;;;;5048745;28;20021;-45
2023/03/25 07:05:58;;;;;;;3.60;1.77;;;9.00;99.90;;;;;;5048586;28;20051;-46
2023/03/25 07:08:24;;;;;;;4.10;1.45;;;9.20;99.90;;;;;;5050351;28;20029;-45
2023/03/25 07:10:49;;;;;;;3.25;1.80;;;9.20;99.90;;;;;;5048855;28;20109;-49
2023/03/25 07:13:15;;;;;;;4.10;1.77;;;9.30;99.90;;;;;;5063452;28;20031;-46
2023/03/25 07:15:40;;;;;;;3.70;1.83;;;9.40;99.90;;;;;;5047843;28;20025;-46
2023/03/25 07:18:06;;;;;;;7.07;1.90;;;9.40;99.90;;;;;;5056930;28;20017;-47
2023/03/25 07:20:31;;;;;;;4.70;2.00;;;9.50;99.90;;;;;;5048801;28;20127;-45
2023/03/25 07:22:57;;;;;;;4.47;1.92;;;9.60;99.90;;;;;;5057401;28;20562;-47
2023/03/25 07:25:22;;;;;;;7.60;1.88;;;9.70;99.90;;;;;;5055491;28;20029;-45
2023/03/25 07:27:48;;;;;;;3.55;1.90;;;9.70;99.90;;;;;;5054237;28;20036;-45
2023/03/25 07:30:14;;;;;;;3.85;2.10;;;9.70;99.90;;;;;;5042471;28;20098;-45
2023/03/25 07:32:39;;;;;;;4.63;2.17;;;9.90;99.90;;;;;;5049749;28;20429;-46
2023/03/25 07:35:07;;;;;;;6.68;2.28;;;10.00;99.90;;;;;;5045516;28;20074;-45
2023/03/25 07:37:32;;;;;;;2.75;1.73;;;10.30;99.90;;;;;;5050064;28;20397;-45
2023/03/25 07:39:58;;;;;;;3.40;1.75;;;10.30;99.90;;;;;;5056478;28;20021;-49
2023/03/25 07:42:23;;;;;;;3.72;2.10;;;10.40;99.90;;;;;;5067846;28;20021;-47
2023/03/25 07:44:49;;;;;;;4.22;1.75;;;10.40;99.90;;;;;;5059683;28;20484;-46
2023/03/25 07:47:14;;;;;;;6.55;1.83;;;10.20;99.90;;;;;;5052185;28;20504;-45
2023/03/25 07:49:40;;;;;;;6.95;2.03;;;10.20;99.90;;;;;;5052208;28;20021;-46
2023/03/25 07:52:06;;;;;;;3.17;1.95;;;10.30;99.90;;;;;;5052953;28;20041;-46
2023/03/25 07:54:32;;;;;;;4.32;1.67;;;10.30;99.90;;;;;;5075533;28;20022;-46
2023/03/25 07:56:57;;;;;;;3.33;1.80;;;10.30;99.90;;;;;;5052288;28;20545;-46
2023/03/25 07:59:24;;;;;;;5.68;2.20;;;10.30;99.90;;;;;;5052579;28;20025;-46
2023/03/25 08:01:49;;;;;;;5.85;2.28;;;10.20;99.90;;;;;;5060970;28;20009;-46
2023/03/25 08:04:15;;;;;;;3.83;1.95;;;10.10;99.90;;;;;;5054225;28;20458;-46
2023/03/25 08:06:41;;;;;;;1.98;1.70;;;10.10;99.90;;;;;;5057209;28;20105;-46
2023/03/25 08:09:06;;;;;;;5.68;1.45;;;10.20;99.90;;;;;;5060390;28;20056;-46
2023/03/25 08:11:32;;;;;;;6.20;2.05;;;10.20;99.90;;;;;;5056463;28;20389;-45
2023/03/25 08:13:57;;;;;;;3.75;1.90;;;10.10;99.90;;;;;;5056237;28;20041;-46
2023/03/25 08:16:23;;;;;;;6.05;2.00;;;10.20;99.90;;;;;;5060000;28;20103;-46
2023/03/25 08:18:51;;;;;;;4.80;1.63;;;10.30;99.90;;;;;;5060526;28;20013;-47
2023/03/25 08:21:23;;;;;;;4.05;1.85;;;10.40;99.90;;;;;;5058907;28;20090;-46
2023/03/25 08:23:50;;;;;;;3.35;1.83;;;10.60;99.90;;;;;;5059103;28;20020;-47
2023/03/25 08:26:16;;;;;;;6.88;1.90;;;11.10;99.90;;;;;;5057349;28;20567;-44
2023/03/25 08:28:41;;;;;;;5.50;1.55;;;11.60;99.90;;;;;;5059203;28;20032;-44
2023/03/25 08:31:08;;;;;;;2.15;1.33;;;11.80;99.90;;;;;;5050381;28;20266;-44
2023/03/25 08:33:38;;;;;;;4.30;1.38;;;12.10;99.90;;;;;;5059135;28;20466;-44
2023/03/25 08:36:04;;;;;;;2.88;1.35;;;11.80;99.90;;;;;;5050607;28;20031;-44
2023/03/25 08:38:30;;;;;;;2.72;1.65;;;11.50;99.90;;;;;;5055360;28;20020;-45
2023/03/25 08:40:57;;;;;;;3.13;1.52;;;11.10;99.90;;;;;;5064316;28;20538;-45
2023/03/25 08:43:23;;;;;;;5.68;1.63;;;11.00;99.90;;;;;;5051450;28;20105;-46
2023/03/25 08:45:49;;;;;;;6.38;1.85;;;10.80;99.90;;;;;;5051356;28;20067;-45
2023/03/25 08:48:14;;;;;;;3.42;1.55;;;10.80;99.90;;;;;;5059481;28;20032;-45
2023/03/25 08:50:40;;;;;;;5.18;1.67;;;10.70;99.90;;;;;;5056571;28;20649;-45
2023/03/25 08:53:05;;;;;;;6.45;1.85;;;11.10;99.90;;;;;;5062647;28;20024;-46
2023/03/25 08:55:31;;;;;;;6.55;1.70;;;11.60;99.90;;;;;;5053629;28;20046;-45
2023/03/25 08:58:01;;;;;;;3.50;1.75;;;12.20;99.90;;;;;;5055509;28;20017;-45
2023/03/25 09:00:27;;;;;;;4.17;1.30;;;13.40;99.90;;;;;;5056427;28;20539;-46
2023/03/25 09:02:52;;;;;;;3.83;1.63;;;14.40;99.90;;;;;;5050467;28;20338;-46
2023/03/25 09:05:18;;;;;;;3.97;1.63;;;14.40;99.90;;;;;;5058018;28;20370;-45
2023/03/25 09:07:44;;;;;;;5.72;1.30;;;14.60;99.90;;;;;;5056178;28;20021;-45
2023/03/25 09:10:11;;;;;;;4.55;1.90;;;14.10;99.90;;;;;;5054479;28;20029;-46
2023/03/25 09:12:37;;;;;;;7.55;1.70;;;13.20;99.90;;;;;;5058118;28;20089;-46
2023/03/25 09:15:03;;;;;;;3.42;1.65;;;12.20;99.90;;;;;;5058737;28;20103;-45
2023/03/25 09:17:29;;;;;;;3.28;1.55;;;12.10;99.90;;;;;;5050589;28;20025;-46
2023/03/25 09:19:55;;;;;;;8.68;2.10;;;12.00;99.90;;;;;;5059551;28;20028;-45
2023/03/25 09:22:21;;;;;;;3.55;1.80;;;11.70;99.90;;;;;;5059530;28;20155;-45
2023/03/25 09:24:46;;;;;;;3.55;1.70;;;11.80;99.90;;;;;;5057857;28;20039;-45
2023/03/25 09:27:12;;;;;;;3.72;1.95;;;11.50;99.90;;;;;;5060515;28;20526;-45
2023/03/25 09:29:37;;;;;;;4.97;1.65;;;11.30;99.90;;;;;;5051258;28;20398;-45
2023/03/25 09:32:03;;;;;;;3.40;1.75;;;11.30;99.90;;;;;;5059527;28;20043;-47
2023/03/25 09:34:29;;;;;;;4.00;1.65;;;11.20;99.90;;;;;;5050527;28;20071;-49
2023/03/25 09:36:55;;;;;;;3.88;2.08;;;11.00;99.90;;;;;;5050390;28;20025;-46
2023/03/25 09:39:21;;;;;;;2.88;1.85;;;10.80;99.90;;;;;;5052697;28;20029;-45
2023/03/25 09:42:12;;;;;;;2.70;2.03;;;10.60;99.90;;;;;;5065319;28;20067;-46
2023/03/25 09:45:11;;;;;;;4.82;1.85;;;10.30;99.90;;;;;;5055400;28;20027;-45
2023/03/25 09:47:38;;;;;;;7.82;2.50;;;10.20;99.90;;;;;;5046915;28;20083;-46
2023/03/25 09:50:09;;;;;;;4.00;2.10;;;10.10;99.90;;;;;;5052114;28;20086;-46
2023/03/25 09:53:00;;;;;;;3.45;1.90;;;10.00;99.90;;;;;;5057449;28;20600;-45
2023/03/25 09:55:29;;;;;;;6.82;2.15;;;9.90;99.90;;;;;;5058461;28;20021;-45
2023/03/25 09:58:01;;;;;;;2.80;1.88;;;9.80;99.90;;;;;;5050151;28;20013;-45
2023/03/25 10:00:27;;;;;;;5.55;1.98;;;9.90;99.90;;;;;;5052297;28;20017;-46
2023/03/25 10:03:16;;;;;;;6.25;2.38;;;10.50;99.90;;;;;;5053968;28;20033;-46
2023/03/25 10:06:25;;;;;;;3.75;2.47;;;10.60;99.90;;;;;;5061589;28;20025;-46
2023/03/25 10:09:12;;;;;;;2.80;1.80;;;11.00;99.90;;;;;;4973974;28;20035;-45
2023/03/25 10:11:51;;;;;;;2.90;1.75;;;11.20;99.90;;;;;;4960888;28;20281;-45
2023/03/25 10:14:48;;;;;;;6.97;1.80;;;11.10;99.90;;;;;;5037756;28;20043;-44
2023/03/25 10:17:36;;;;;;;5.90;1.30;;;11.20;99.90;;;;;;5055896;28;20655;-45
2023/03/25 10:20:17;;;;;;;5.50;1.67;;;11.20;99.90;;;;;;5061485;28;20073;-45
2023/03/25 10:23:15;;;;;;;2.05;1.55;;;11.00;99.90;;;;;;5034696;28;20027;-45
2023/03/25 10:25:47;;;;;;;5.07;2.20;;;10.60;99.90;;;;;;5049345;28;20107;-45
2023/03/25 10:28:19;;;;;;;2.33;1.70;;;10.30;99.90;;;;;;5050166;28;20071;-44
2023/03/25 10:30:50;;;;;;;2.72;1.88;;;10.10;99.90;;;;;;5056675;28;20017;-45
2023/03/25 10:33:37;;;;;;;2.70;1.55;;;9.90;99.90;;;;;;5058374;28;20021;-45
2023/03/25 10:36:06;;;;;;;5.95;1.80;;;9.90;99.90;;;;;;5063339;28;20029;-44
2023/03/25 10:38:36;;;;;;;2.67;1.70;;;9.90;99.90;;;;;;5048303;28;20091;-46
2023/03/25 10:41:15;;;;;;;6.63;2.00;;;9.90;99.90;;;;;;5058015;28;20108;-46
2023/03/25 10:43:42;;;;;;;4.00;2.20;;;9.90;99.90;;;;;;5056508;28;20013;-45
2023/03/25 10:46:27;;;;;;;4.07;2.30;;;10.00;99.90;;;;;;5057398;28;20493;-45
2023/03/25 10:48:52;;;;;;;3.97;2.17;;;10.00;99.90;;;;;;5044010;28;20070;-45
2023/03/25 10:51:26;;;;;;;6.72;2.83;;;9.90;99.90;;;;;;5049067;28;20025;-44
2023/03/25 10:53:52;;;;;;;4.82;2.08;;;10.00;99.90;;;;;;5048016;28;20079;-45
2023/03/25 10:56:26;;;;;;;3.72;1.77;;;10.10;99.90;;;;;;5048233;28;20025;-45
2023/03/25 10:58:56;;;;;;;3.95;1.90;;;10.30;99.90;;;;;;5049659;28;20230;-45
2023/03/25 11:01:38;;;;;;;4.97;2.55;;;10.50;99.90;;;;;;5057780;28;20025;-45
2023/03/25 11:04:10;;;;;;;2.55;1.42;;;11.60;99.90;;;;;;5049336;28;20436;-45
2023/03/25 11:06:44;;;;;;;3.15;1.50;;;12.90;99.90;;;;;;5048514;28;20024;-45
2023/03/25 11:09:23;;;;;;;2.85;1.30;;;13.30;99.90;;;;;;5049423;28;20036;-45
2023/03/25 11:11:48;;;;;;;3.83;1.90;;;13.20;99.90;;;;;;5057138;28;20029;-46
2023/03/25 11:14:16;;;;;;;4.25;1.70;;;12.90;99.90;;;;;;5050435;28;20025;-45
2023/03/25 11:16:48;;;;;;;4.22;1.63;;;13.20;99.90;;;;;;5055886;28;20021;-47
2023/03/25 11:19:19;;;;;;;3.33;1.42;;;13.30;99.90;;;;;;5049317;28;20490;-45
2023/03/25 11:21:51;;;;;;;6.05;1.38;;;13.30;99.90;;;;;;5063218;28;20029;-45
2023/03/25 11:24:18;;;;;;;3.15;1.42;;;12.80;99.90;;;;;;5057360;28;20074;-44
2023/03/25 11:26:47;;;;;;;4.40;1.73;;;13.40;99.90;;;;;;5048670;28;20021;-45
2023/03/25 11:29:17;;;;;;;4.70;1.45;;;13.80;99.90;;;;;;5057275;28;20519;-45
2023/03/25 11:31:53;;;;;;;3.92;1.63;;;15.20;99.90;;;;;;5052454;28;20693;-46
2023/03/25 11:34:21;;;;;;;2.80;1.60;;;16.30;98.20;;;;;;5073809;28;20029;-46
2023/03/25 11:37:05;;;;;;;4.35;1.90;;;16.60;92.80;;;;;;5048662;28;20115;-46
2023/03/25 11:39:38;;;;;;;4.10;2.03;;;16.20;92.60;;;;;;5057254;28;20430;-46
2023/03/25 11:42:16;;;;;;;6.43;2.10;;;15.00;93.90;;;;;;5049034;28;20035;-46
2023/03/25 11:44:50;;;;;;;7.93;2.38;;;14.20;94.90;;;;;;5045698;28;20021;-46
2023/03/25 11:47:24;;;;;;;5.60;2.35;;;14.00;96.00;;;;;;5051472;28;20063;-45
2023/03/25 11:49:52;;;;;;;6.47;2.50;;;13.90;94.40;;;;;;5052968;28;20024;-46
2023/03/25 11:52:23;;;;;;;5.95;2.17;;;13.90;94.80;;;;;;5059673;28;20028;-45
2023/03/25 11:54:51;;;;;;;4.18;2.35;;;14.00;94.00;;;;;;5053419;28;20016;-47
2023/03/25 11:57:21;;;;;;;5.97;2.17;;;13.90;95.20;;;;;;5051611;28;20084;-45
2023/03/25 11:59:49;;;;;;;3.30;2.25;;;13.50;95.60;;;;;;5063870;28;20021;-45
2023/03/25 12:02:22;;;;;;;4.00;2.20;;;13.50;96.00;;;;;;5057212;28;20333;-47
2023/03/25 12:05:01;;;;;;;8.77;2.35;;;13.60;95.00;;;;;;5048529;28;20479;-46
2023/03/25 12:07:27;;;;;;;6.63;1.70;;;13.70;95.10;;;;;;5048409;28;20033;-46
2023/03/25 12:09:58;;;;;;;2.80;1.75;;;13.40;96.00;;;;;;5056965;28;20028;-47
2023/03/25 12:12:55;;;;;;;5.50;2.10;;;13.50;96.00;;;;;;5049959;28;20021;-48
2023/03/25 12:15:53;;;;;;;6.07;2.40;;;13.60;95.90;;;;;;5057427;28;20024;-45
2023/03/25 12:18:47;;;;;;;4.55;2.35;;;13.00;96.10;;;;;;5049208;28;20027;-46
2023/03/25 12:21:34;;;;;;;4.22;1.92;;;12.70;96.80;;;;;;5060207;28;20021;-47
2023/03/25 12:24:18;;;;;;;5.63;2.10;;;12.90;97.60;;;;;;5040974;28;20031;-44
2023/03/25 12:26:49;;;;;;;5.25;2.00;;;12.90;96.50;;;;;;5056092;28;20441;-47
2023/03/25 12:29:26;;;;;;;5.35;2.20;;;13.00;96.80;;;;;;5072011;28;20021;-45
2023/03/25 12:32:17;;;;;;;7.82;2.42;;;13.70;98.70;;;;;;5051561;28;20482;-46
2023/03/25 12:35:00;;;;;;;4.22;2.03;;;13.90;95.00;;;;;;5040565;28;20028;-47
2023/03/25 12:37:48;;;;;;;8.02;2.17;;;13.90;94.60;;;;;;5062256;28;20345;-45
2023/03/25 12:40:41;;;;;;;3.30;1.98;;;14.20;93.80;;;;;;5059205;28;20502;-45
2023/03/25 12:43:21;;;;;;;5.53;2.28;;;14.80;92.10;;;;;;5059168;28;20029;-45
2023/03/25 12:45:49;;;;;;;7.90;2.30;;;14.90;92.60;;;;;;5048941;28;20332;-46
2023/03/25 12:48:21;;;;;;;8.18;2.75;;;14.70;92.50;;;;;;5062244;28;20028;-47
2023/03/25 12:51:19;;;;;;;6.25;2.28;;;14.80;93.00;;;;;;5051587;28;20017;-46
2023/03/25 12:53:59;;;;;;;6.93;2.92;;;14.80;93.50;;;;;;5043464;28;20047;-45
2023/03/25 12:56:36;;;;;;;8.05;2.58;;;14.40;93.70;;;;;;5071229;28;20052;-46
2023/03/25 12:59:10;;;;;;;5.15;2.15;;;14.20;94.30;;;;;;5063272;28;20539;-46
2023/03/25 13:01:53;;;;;;;5.45;2.65;;;14.20;93.90;;;;;;5051844;28;20450;-45
2023/03/25 13:04:54;;;;;;;6.95;2.28;;;14.10;94.10;;;;;;5050395;28;20020;-45
2023/03/25 13:07:26;;;;;;;7.53;2.53;;;13.80;95.10;;;;;;5049955;28;20029;-45
2023/03/25 13:10:11;;;;;;;9.77;3.08;;;13.50;95.70;;;;;;5052409;28;20478;-45
2023/03/25 13:12:41;;;;;;;6.40;2.38;;;13.30;95.80;;;;;;5047070;28;20588;-45
2023/03/25 13:15:36;;;;;;;10.98;2.97;;;13.40;95.30;;;;;;5051147;28;20513;-45